createdAt,value
2023-01-19T00:01:54.012Z,8.27
2023-01-19T00:04:23.553Z,8.03
2023-01-19T00:06:53.068Z,8.40
2023-01-19T00:09:23.272Z,7.43
2023-01-19T00:11:55.284Z,7.97
2023-01-19T00:14:24.929Z,7.07
2023-01-19T00:16:54.361Z,8.20
2023-01-19T00:19:23.985Z,7.90
2023-01-19T00:21:53.485Z,8.63
2023-01-19T00:24:23.082Z,7.90
2023-01-19T00:26:55.112Z,8.50
2023-01-19T00:29:24.625Z,8.20
2023-01-19T00:31:54.139Z,7.67
2023-01-19T00:34:23.656Z,8.13
2023-01-19T00:36:53.125Z,8.50
2023-01-19T00:39:22.756Z,7.57
2023-01-19T00:42:04.923Z,8.17
2023-01-19T00:44:37.093Z,7.67
2023-01-19T00:47:06.827Z,8.70
2023-01-19T00:49:36.297Z,8.70
2023-01-19T00:52:05.821Z,7.47
2023-01-19T00:54:35.320Z,7.57
2023-01-19T00:57:05.111Z,8.60
2023-01-19T00:59:37.198Z,7.57
2023-01-19T01:02:06.955Z,8.53
2023-01-19T01:04:36.659Z,7.57
2023-01-19T01:07:06.296Z,7.23
2023-01-19T01:09:35.768Z,7.67
2023-01-19T01:12:05.895Z,7.90
2023-01-19T01:14:38.415Z,7.87
2023-01-19T01:17:11.361Z,8.57
2023-01-19T01:19:40.926Z,8.00
2023-01-19T01:22:10.600Z,7.67
2023-01-19T01:24:40.175Z,7.97
2023-01-19T01:27:09.655Z,7.87
2023-01-19T01:29:41.957Z,8.40
2023-01-19T01:32:11.562Z,8.03
2023-01-19T01:34:41.025Z,7.47
2023-01-19T01:37:10.709Z,7.80
2023-01-19T01:39:40.529Z,8.03
2023-01-19T01:42:16.954Z,7.83
2023-01-19T01:44:54.124Z,8.37
2023-01-19T01:47:31.641Z,8.17
2023-01-19T01:50:06.004Z,8.03
2023-01-19T01:52:36.668Z,8.30
2023-01-19T01:55:07.859Z,7.17
2023-01-19T01:57:38.656Z,8.83
2023-01-19T02:00:11.825Z,8.27
2023-01-19T02:02:55.266Z,7.57
2023-01-19T02:05:26.391Z,6.90
2023-01-19T02:08:11.225Z,8.17
2023-01-19T02:10:53.455Z,8.07
2023-01-19T02:13:23.334Z,7.67
2023-01-19T02:15:56.115Z,7.73
2023-01-19T02:18:26.712Z,8.20
2023-01-19T02:21:06.497Z,8.53
2023-01-19T02:23:49.426Z,7.97
2023-01-19T02:26:20.478Z,8.80
2023-01-19T02:28:52.037Z,8.90
2023-01-19T02:31:21.834Z,9.93
2023-01-19T02:33:51.624Z,8.50
2023-01-19T03:08:51.372Z,8.35
2023-01-19T03:11:21.485Z,9.07
2023-01-19T03:13:54.629Z,8.33
2023-01-19T03:16:27.165Z,8.83
2023-01-19T03:18:58.879Z,9.33
2023-01-19T03:21:30.362Z,8.20
2023-01-19T03:24:05.327Z,8.43
2023-01-19T03:26:38.264Z,8.37
2023-01-19T03:29:08.391Z,8.57
2023-01-19T03:31:39.628Z,8.80
2023-01-19T03:34:11.331Z,10.30
2023-01-19T03:36:43.914Z,8.57
2023-01-19T03:39:17.356Z,9.80
2023-01-19T03:41:47.250Z,8.93
2023-01-19T03:44:16.822Z,8.33
2023-01-19T03:46:47.580Z,8.80
2023-01-19T03:49:17.151Z,9.07
2023-01-19T03:51:46.648Z,9.47
2023-01-19T03:54:18.804Z,9.17
2023-01-19T03:56:48.306Z,9.10
2023-01-19T03:59:19.716Z,8.63
2023-01-19T04:01:49.496Z,9.43
2023-01-19T04:04:19.043Z,9.20
2023-01-19T04:06:48.637Z,9.07
2023-01-19T04:09:20.746Z,8.40
2023-01-19T04:11:50.304Z,8.97
2023-01-19T04:14:19.850Z,8.80
2023-01-19T04:16:49.448Z,9.23
2023-01-19T04:19:18.956Z,9.57
2023-01-19T04:21:50.835Z,8.60
2023-01-19T04:24:23.063Z,9.50
2023-01-19T04:26:53.743Z,8.23
2023-01-19T04:29:24.591Z,9.33
2023-01-19T04:31:54.198Z,8.63
2023-01-19T04:34:23.767Z,9.37
2023-01-19T04:36:56.109Z,9.07
2023-01-19T04:39:28.842Z,8.70
2023-01-19T04:41:58.605Z,9.50
2023-01-19T04:44:28.113Z,9.23
2023-01-19T04:46:57.806Z,9.33
2023-01-19T04:49:27.442Z,9.47
2023-01-19T04:51:56.932Z,8.43
2023-01-19T04:54:29.068Z,9.00
2023-01-19T04:56:58.747Z,9.80
2023-01-19T04:59:28.199Z,8.73
2023-01-19T05:01:58.885Z,9.43
2023-01-19T05:04:28.536Z,8.70
2023-01-19T05:06:58.374Z,9.83
2023-01-19T05:09:30.408Z,9.10
2023-01-19T05:12:00.000Z,8.70
2023-01-19T05:14:29.526Z,8.37
2023-01-19T05:16:58.993Z,9.03
2023-01-19T05:19:28.444Z,9.03
2023-01-19T05:21:57.886Z,9.17
2023-01-19T05:24:30.036Z,9.80
2023-01-19T05:26:59.748Z,9.30
2023-01-19T05:29:29.240Z,9.77
2023-01-19T05:31:58.730Z,10.10
2023-01-19T05:34:28.164Z,9.67
2023-01-19T05:36:57.925Z,9.33
2023-01-19T05:39:30.403Z,9.80
2023-01-19T05:41:59.945Z,9.53
2023-01-19T05:44:29.684Z,9.43
2023-01-19T05:46:59.265Z,9.55
2023-01-19T05:49:29.444Z,9.77
2023-01-19T05:51:58.879Z,8.40
2023-01-19T05:54:30.962Z,9.83
2023-01-19T05:57:00.591Z,9.10
2023-01-19T05:59:30.023Z,8.90
2023-01-19T06:02:00.123Z,9.57
2023-01-19T06:04:29.719Z,9.30
2023-01-19T06:06:59.216Z,8.57
2023-01-19T06:09:31.927Z,9.77
2023-01-19T06:12:01.609Z,9.23
2023-01-19T06:14:31.471Z,9.17
2023-01-19T06:17:01.010Z,9.87
2023-01-19T06:19:30.667Z,9.17
2023-01-19T06:22:00.178Z,9.80
2023-01-19T06:24:33.056Z,9.00
2023-01-19T06:27:02.809Z,8.10
2023-01-19T06:29:32.335Z,8.40
2023-01-19T06:32:01.834Z,8.47
2023-01-19T06:34:31.510Z,8.43
2023-01-19T06:37:01.052Z,9.00
2023-01-19T06:39:33.260Z,8.87
2023-01-19T06:42:02.987Z,9.07
2023-01-19T06:44:32.510Z,9.80
2023-01-19T06:47:15.830Z,9.53
2023-01-19T06:49:45.671Z,9.03
2023-01-19T06:52:17.182Z,9.90
2023-01-19T06:54:49.776Z,9.83
2023-01-19T06:57:19.467Z,9.60
2023-01-19T06:59:49.079Z,9.60
2023-01-19T07:02:27.510Z,9.80
2023-01-19T07:04:58.057Z,9.20
2023-01-19T07:07:28.102Z,9.33
2023-01-19T07:10:00.244Z,10.03
2023-01-19T07:12:29.945Z,9.80
2023-01-19T07:14:59.565Z,10.20
2023-01-19T07:17:29.247Z,10.87
2023-01-19T07:19:58.812Z,9.53
2023-01-19T07:22:28.380Z,10.47
2023-01-19T07:25:00.521Z,9.20
2023-01-19T07:27:30.296Z,8.43
2023-01-19T07:30:01.192Z,9.80
2023-01-19T07:32:31.185Z,9.17
2023-01-19T07:35:00.701Z,10.23
2023-01-19T07:37:30.319Z,8.83
2023-01-19T07:40:02.456Z,9.73
2023-01-19T07:42:32.149Z,8.53
2023-01-19T08:29:34.188Z,9.88
2023-01-19T08:32:03.982Z,9.60
2023-01-19T08:34:33.849Z,9.63
2023-01-19T08:37:03.377Z,8.60
2023-01-19T08:39:33.128Z,9.83
2023-01-19T08:42:06.058Z,9.87
2023-01-19T08:44:43.882Z,9.63
2023-01-19T08:47:20.371Z,9.07
2023-01-19T08:49:49.967Z,8.43
2023-01-19T08:52:19.520Z,9.37
2023-01-19T08:54:49.082Z,8.90
2023-01-19T08:57:18.683Z,9.00
2023-01-19T08:59:50.920Z,8.10
2023-01-19T09:02:20.610Z,8.30
2023-01-19T09:04:50.339Z,8.73
2023-01-19T09:07:21.201Z,9.50
2023-01-19T09:09:50.764Z,9.37
2023-01-19T09:12:20.208Z,9.63
2023-01-19T09:14:52.468Z,9.27
2023-01-19T09:17:22.085Z,8.13
2023-01-19T09:19:51.792Z,9.70
2023-01-19T09:22:21.432Z,9.40
2023-01-19T09:24:50.969Z,8.87
2023-01-19T09:27:20.508Z,8.80
2023-01-19T09:29:54.254Z,8.27
2023-01-19T09:32:24.518Z,8.70
2023-01-19T09:34:55.119Z,9.23
2023-01-19T09:37:24.748Z,8.33
2023-01-19T09:39:54.281Z,7.97
2023-01-19T09:42:27.553Z,8.53
2023-01-19T09:44:59.807Z,8.17
2023-01-19T09:47:31.059Z,7.17
2023-01-19T09:50:04.410Z,8.10
2023-01-19T09:52:35.894Z,7.20
2023-01-19T09:55:05.458Z,7.30
2023-01-19T09:57:35.281Z,7.97
2023-01-19T10:00:10.028Z,7.53
2023-01-19T10:02:45.744Z,7.40
2023-01-19T10:05:24.945Z,7.57
2023-01-19T10:08:03.712Z,7.03
2023-01-19T10:10:34.110Z,7.10
2023-01-19T10:13:17.116Z,7.20
2023-01-19T10:15:55.336Z,7.17
2023-01-19T10:18:31.030Z,7.07
2023-01-19T10:21:05.557Z,7.33
2023-01-19T10:23:39.524Z,6.97
2023-01-19T10:26:11.219Z,7.07
2023-01-19T10:28:41.520Z,6.77
2023-01-19T10:31:14.400Z,6.10
2023-01-19T10:33:44.003Z,6.83
2023-01-19T10:36:19.912Z,6.97
2023-01-19T10:38:51.042Z,7.63
2023-01-19T10:41:22.529Z,7.13
2023-01-19T10:43:52.081Z,7.10
2023-01-19T10:46:32.242Z,7.80
2023-01-19T10:49:01.918Z,7.03
2023-01-19T10:51:31.547Z,7.07
2023-01-19T10:54:03.156Z,6.97
2023-01-19T10:56:34.613Z,8.50
2023-01-19T10:59:05.074Z,7.60
2023-01-19T11:01:38.779Z,7.60
2023-01-19T11:04:23.351Z,6.83
2023-01-19T11:06:52.982Z,7.10
2023-01-19T11:09:23.615Z,7.80
2023-01-19T11:11:54.131Z,7.43
2023-01-19T11:14:24.969Z,8.20
2023-01-19T11:16:57.969Z,6.83
2023-01-19T11:19:28.943Z,6.73
2023-01-19T11:22:11.133Z,6.90
2023-01-19T11:24:41.844Z,7.03
2023-01-19T11:27:11.409Z,8.20
2023-01-19T11:29:41.749Z,8.10
2023-01-19T11:32:22.645Z,8.23
2023-01-19T11:34:52.421Z,7.80
2023-01-19T11:37:29.253Z,8.00
2023-01-19T11:39:59.854Z,6.53
2023-01-19T11:42:31.027Z,7.43
2023-01-19T11:45:03.035Z,6.97
2023-01-19T11:47:38.106Z,8.03
2023-01-19T11:50:08.959Z,7.67
2023-01-19T11:52:43.164Z,6.33
2023-01-19T11:55:17.634Z,6.53
2023-01-19T11:57:48.517Z,7.20
2023-01-19T12:00:25.431Z,6.67
2023-01-19T12:03:01.496Z,7.13
2023-01-19T12:05:33.514Z,7.70
2023-01-19T12:08:06.860Z,8.93
2023-01-19T12:10:38.737Z,7.40
2023-01-19T12:13:08.300Z,7.27
2023-01-19T12:15:39.886Z,7.57
2023-01-19T12:18:15.739Z,7.20
2023-01-19T12:20:46.726Z,6.30
2023-01-19T12:23:22.161Z,6.93
2023-01-19T12:25:56.165Z,6.00
2023-01-19T12:28:29.135Z,6.33
2023-01-19T12:30:59.142Z,6.67
2023-01-19T12:33:41.786Z,6.53
2023-01-19T12:36:14.257Z,6.43
2023-01-19T12:38:45.968Z,7.40
2023-01-19T12:41:33.105Z,6.00
2023-01-19T12:44:19.213Z,6.47
2023-01-19T12:46:50.173Z,6.47
2023-01-19T12:49:30.281Z,5.80
2023-01-19T12:52:14.376Z,5.83
2023-01-19T12:54:45.461Z,6.23
2023-01-19T12:57:21.204Z,6.43
2023-01-19T12:59:57.793Z,6.27
2023-01-19T13:02:39.328Z,7.00
2023-01-19T13:05:19.550Z,6.80
2023-01-19T13:08:04.954Z,6.20
2023-01-19T13:10:49.586Z,6.40
2023-01-19T13:13:20.623Z,6.43
2023-01-19T13:15:51.096Z,6.70
2023-01-19T13:18:21.188Z,6.13
2023-01-19T13:20:55.905Z,6.47
2023-01-19T13:23:27.577Z,6.30
2023-01-19T13:26:01.695Z,5.90
2023-01-19T13:28:38.276Z,5.53
2023-01-19T13:31:10.155Z,8.20
2023-01-19T13:33:41.499Z,5.80
2023-01-19T13:36:22.386Z,5.40
2023-01-19T13:38:52.950Z,4.17
2023-01-19T13:41:24.466Z,3.80
2023-01-19T13:43:57.729Z,4.40
2023-01-19T13:46:28.137Z,4.37
2023-01-19T13:48:58.776Z,3.70
2023-01-19T13:51:31.223Z,4.03
2023-01-19T13:54:01.798Z,3.80
2023-01-19T13:56:31.843Z,3.67
2023-01-19T13:59:04.013Z,3.90
2023-01-19T14:01:34.064Z,3.77
2023-01-19T14:04:03.856Z,4.10
2023-01-19T14:06:40.727Z,4.30
2023-01-19T14:09:18.632Z,4.20
2023-01-19T14:11:48.711Z,3.73
2023-01-19T14:14:24.978Z,4.33
2023-01-19T14:16:54.768Z,3.60
2023-01-19T14:19:24.411Z,4.57
2023-01-19T14:22:06.756Z,3.53
2023-01-19T14:24:36.288Z,3.00
2023-01-19T14:27:14.415Z,3.80
2023-01-19T14:29:45.670Z,3.10
2023-01-19T14:32:16.582Z,3.73
2023-01-19T14:34:47.258Z,3.53
2023-01-19T14:37:24.092Z,3.47
2023-01-19T14:39:54.268Z,3.20
2023-01-19T14:42:26.241Z,3.70
2023-01-19T14:44:56.583Z,4.03
2023-01-19T14:47:40.909Z,3.77
2023-01-19T14:50:20.208Z,3.83
2023-01-19T14:52:55.893Z,3.43
2023-01-19T14:55:27.724Z,4.13
2023-01-19T14:57:57.703Z,4.83
2023-01-19T15:00:27.467Z,4.17
2023-01-19T15:02:57.000Z,4.17
2023-01-19T15:05:26.565Z,4.03
2023-01-19T15:07:58.741Z,4.83
2023-01-19T15:10:29.051Z,3.77
2023-01-19T15:12:59.012Z,4.23
2023-01-19T15:15:31.016Z,4.33
2023-01-19T15:18:00.958Z,4.60
2023-01-19T15:20:30.607Z,5.80
2023-01-19T15:23:02.703Z,5.47
2023-01-19T15:25:32.344Z,5.00
2023-01-19T15:28:02.015Z,4.87
2023-01-19T15:30:33.713Z,6.60
2023-01-19T15:33:03.325Z,5.97
2023-01-19T15:35:32.891Z,5.70
2023-01-19T15:38:05.033Z,7.67
2023-01-19T15:40:34.657Z,6.00
2023-01-19T15:43:04.142Z,6.47
2023-01-19T15:45:36.175Z,7.00
2023-01-19T15:48:06.761Z,5.90
2023-01-19T15:50:36.420Z,7.10
2023-01-19T15:53:08.722Z,9.30
2023-01-19T15:55:38.596Z,7.83
2023-01-19T15:58:08.079Z,8.13
2023-01-19T16:00:37.702Z,6.20
2023-01-19T16:03:07.448Z,6.47
2023-01-19T16:05:42.981Z,7.63
2023-01-19T16:08:16.033Z,9.17
2023-01-19T16:10:45.531Z,7.83
2023-01-19T16:13:15.101Z,5.30
2023-01-19T16:15:44.995Z,5.10
2023-01-19T16:18:14.564Z,4.50
2023-01-19T16:20:43.998Z,4.57
2023-01-19T16:23:16.171Z,4.40
2023-01-19T16:25:45.884Z,5.40
2023-01-19T16:28:15.442Z,5.23
2023-01-19T16:30:45.074Z,5.23
2023-01-19T16:33:14.576Z,5.07
2023-01-19T16:35:44.141Z,4.83
2023-01-19T16:38:16.371Z,4.57
2023-01-19T16:40:46.802Z,5.37
2023-01-19T16:43:16.716Z,5.13
2023-01-19T16:45:58.519Z,4.93
2023-01-19T16:48:28.507Z,5.30
2023-01-19T16:51:05.035Z,5.33
2023-01-19T16:53:37.330Z,6.40
2023-01-19T16:56:07.604Z,4.83
2023-01-19T16:58:38.521Z,5.90
2023-01-19T17:01:12.183Z,5.03
2023-01-19T17:03:42.384Z,5.90
2023-01-19T17:06:12.751Z,5.60
2023-01-19T17:08:45.028Z,5.53
2023-01-19T17:11:19.521Z,6.23
2023-01-19T17:13:49.075Z,4.77
2023-01-19T17:16:18.599Z,5.20
2023-01-19T17:18:48.298Z,5.53
2023-01-19T17:21:18.927Z,5.37
2023-01-19T17:23:53.596Z,6.40
2023-01-19T17:26:23.933Z,4.93
2023-01-19T17:28:53.891Z,4.80
2023-01-19T17:31:24.119Z,4.90
2023-01-19T17:33:53.703Z,5.30
2023-01-19T17:36:25.335Z,6.37
2023-01-19T17:38:58.665Z,8.63
2023-01-19T17:41:29.320Z,8.53
2023-01-19T17:43:59.205Z,7.97
2023-01-19T17:46:29.689Z,9.40
2023-01-19T17:48:59.597Z,7.57
2023-01-19T17:51:29.500Z,6.30
2023-01-19T17:54:01.812Z,6.17
2023-01-19T17:56:36.784Z,8.67
2023-01-19T17:59:08.259Z,7.30
2023-01-19T18:01:40.625Z,6.03
2023-01-19T18:04:10.695Z,6.13
2023-01-19T18:06:41.282Z,6.40
2023-01-19T18:09:14.703Z,5.30
2023-01-19T18:11:45.421Z,5.50
2023-01-19T18:14:14.971Z,5.47
2023-01-19T18:16:44.455Z,5.47
2023-01-19T18:19:14.083Z,6.07
2023-01-19T18:21:43.598Z,5.47
2023-01-19T18:24:15.788Z,6.17
2023-01-19T18:26:45.452Z,7.13
2023-01-19T18:29:16.732Z,6.07
2023-01-19T18:31:46.284Z,6.73
2023-01-19T18:34:15.873Z,6.13
2023-01-19T18:36:45.530Z,7.00
2023-01-19T18:39:17.641Z,6.40
2023-01-19T18:41:47.454Z,6.00
2023-01-19T18:44:16.953Z,8.47
2023-01-19T18:46:46.502Z,10.50
2023-01-19T18:49:16.058Z,8.37
2023-01-19T18:51:45.520Z,6.30
2023-01-19T18:54:17.640Z,6.10
2023-01-19T18:56:47.207Z,6.00
2023-01-19T18:59:16.682Z,7.27
2023-01-19T19:01:46.418Z,5.77
2023-01-19T19:04:15.944Z,6.67
2023-01-19T19:06:45.453Z,5.43
2023-01-19T19:09:17.607Z,5.13
2023-01-19T19:11:47.620Z,5.57
2023-01-19T19:14:17.138Z,6.33
2023-01-19T19:16:46.656Z,6.67
2023-01-19T19:19:16.094Z,6.20
2023-01-19T19:21:45.857Z,5.67
2023-01-19T19:24:17.944Z,6.40
2023-01-19T19:26:47.561Z,6.67
2023-01-19T19:29:17.072Z,7.13
2023-01-19T19:31:46.724Z,6.17
2023-01-19T19:34:16.257Z,6.53
2023-01-19T19:36:45.794Z,5.63
2023-01-19T19:39:17.891Z,5.87
2023-01-19T19:41:47.390Z,6.13
2023-01-19T19:44:16.874Z,6.23
2023-01-19T19:46:46.403Z,5.10
2023-01-19T19:49:17.816Z,5.93
2023-01-19T19:51:48.021Z,5.33
2023-01-19T19:54:20.227Z,5.63
2023-01-19T19:56:52.053Z,5.30
2023-01-19T19:59:21.569Z,5.70
2023-01-19T20:01:52.409Z,5.80
2023-01-19T20:04:23.962Z,4.87
2023-01-19T20:06:53.643Z,5.00
2023-01-19T20:09:25.733Z,5.10
2023-01-19T20:11:55.353Z,5.50
2023-01-19T20:14:25.259Z,5.77
2023-01-19T20:16:54.771Z,5.30
2023-01-19T20:19:24.269Z,5.57
2023-01-19T20:21:53.817Z,6.33
2023-01-19T20:24:25.916Z,5.60
2023-01-19T20:26:57.256Z,5.60
2023-01-19T20:29:26.989Z,5.90
2023-01-19T20:31:57.919Z,5.60
2023-01-19T20:34:29.120Z,5.57
2023-01-19T20:36:59.638Z,5.73
2023-01-19T20:39:33.636Z,5.37
2023-01-19T20:42:03.240Z,6.63
2023-01-19T20:44:33.036Z,6.33
2023-01-19T20:47:04.197Z,5.87
2023-01-19T20:49:34.885Z,5.77
2023-01-19T20:52:04.713Z,5.87
2023-01-19T20:54:36.903Z,5.30
2023-01-19T20:57:06.628Z,5.87
2023-01-19T20:59:37.078Z,5.63
2023-01-19T21:02:12.481Z,5.70
2023-01-19T21:04:42.157Z,5.30
2023-01-19T21:07:11.808Z,5.70
2023-01-19T21:09:44.032Z,5.40
2023-01-19T21:12:15.214Z,5.00
2023-01-19T21:14:46.196Z,6.30
2023-01-19T21:17:15.805Z,6.17
2023-01-19T21:19:45.309Z,6.83
2023-01-19T21:22:14.807Z,7.30
2023-01-19T21:24:46.881Z,6.37
2023-01-19T21:27:16.500Z,6.93
2023-01-19T21:29:45.968Z,7.17
2023-01-19T21:32:15.454Z,6.43
2023-01-19T21:34:45.788Z,5.90
2023-01-19T21:37:15.288Z,6.77
2023-01-19T21:39:47.580Z,5.77
2023-01-19T21:42:17.145Z,6.10
2023-01-19T21:44:46.628Z,6.33
2023-01-19T21:47:16.232Z,6.17
2023-01-19T21:49:45.707Z,6.63
2023-01-19T21:52:15.246Z,5.40
2023-01-19T21:54:47.389Z,7.00
2023-01-19T21:57:19.689Z,6.40
2023-01-19T21:59:49.339Z,5.97
2023-01-19T22:02:33.318Z,6.47
2023-01-19T22:05:07.818Z,5.53
2023-01-19T22:07:37.335Z,6.10
2023-01-19T22:10:11.117Z,6.63
2023-01-19T22:12:41.056Z,7.50
2023-01-19T22:15:11.889Z,5.83
2023-01-19T22:17:41.571Z,6.40
2023-01-19T22:20:11.945Z,6.20
2023-01-19T22:22:41.397Z,6.43
2023-01-19T22:25:15.173Z,6.93
2023-01-19T22:27:45.022Z,6.03
2023-01-19T22:30:14.595Z,6.73
2023-01-19T22:32:44.805Z,6.07
2023-01-19T22:35:15.394Z,6.37
2023-01-19T22:37:45.124Z,6.10
2023-01-19T22:40:17.546Z,5.73
2023-01-19T22:42:48.005Z,6.27
2023-01-19T22:45:17.694Z,6.70
2023-01-19T22:47:47.275Z,7.03
2023-01-19T22:50:17.015Z,7.13
2023-01-19T22:52:46.522Z,6.17
2023-01-19T22:55:18.718Z,5.93
2023-01-19T22:57:48.449Z,5.97
2023-01-19T23:00:18.521Z,6.10
2023-01-19T23:02:49.581Z,6.63
2023-01-19T23:05:19.104Z,6.03
2023-01-19T23:07:48.568Z,5.77
2023-01-19T23:10:20.841Z,6.37
2023-01-19T23:12:51.599Z,6.37
2023-01-19T23:15:21.153Z,6.60
2023-01-19T23:17:53.031Z,5.87
2023-01-19T23:20:23.151Z,6.30
2023-01-19T23:22:52.616Z,5.90
2023-01-19T23:25:24.762Z,6.23
2023-01-19T23:27:54.286Z,6.00
2023-01-19T23:30:23.809Z,6.27
2023-01-19T23:32:53.359Z,6.13
2023-01-19T23:35:22.807Z,6.23
2023-01-19T23:37:52.312Z,6.00
2023-01-19T23:40:24.432Z,6.77
2023-01-19T23:42:53.903Z,6.47
2023-01-19T23:45:23.399Z,5.60
2023-01-19T23:47:52.911Z,5.83
2023-01-19T23:50:22.558Z,6.73
2023-01-19T23:52:52.591Z,5.67
2023-01-19T23:55:24.629Z,6.13
2023-01-19T23:57:54.261Z,6.97
